createdAt,value
2023-03-13T00:01:28.051Z,93536.47
2023-03-13T00:03:55.964Z,93536.34
2023-03-13T00:06:27.028Z,93541.19
2023-03-13T00:08:55.007Z,93528.34
2023-03-13T00:11:22.617Z,93526.84
2023-03-13T00:13:54.957Z,93538.00
2023-03-13T00:16:23.007Z,93550.34
2023-03-13T00:18:53.208Z,93542.63
2023-03-13T00:21:23.388Z,93537.81
2023-03-13T00:23:51.914Z,93536.53
2023-03-13T00:26:22.292Z,93541.44
2023-03-13T00:28:51.103Z,93542.09
2023-03-13T00:31:24.683Z,93537.97
2023-03-13T00:33:55.787Z,93545.22
2023-03-13T00:36:26.627Z,93536.34
2023-03-13T00:38:55.112Z,93543.16
2023-03-13T00:41:25.950Z,93544.34
2023-03-13T00:43:53.619Z,93543.41
2023-03-13T00:46:24.224Z,93544.53
2023-03-13T00:48:52.653Z,93551.50
2023-03-13T00:51:21.858Z,93546.78
2023-03-13T00:53:49.554Z,93537.34
2023-03-13T00:56:18.903Z,93542.38
2023-03-13T00:58:48.318Z,93550.97
2023-03-13T01:01:28.029Z,93549.38
2023-03-13T01:03:58.500Z,93547.25
2023-03-13T01:06:28.455Z,93543.34
2023-03-13T01:08:58.346Z,93543.81
2023-03-13T01:11:28.855Z,93550.50
2023-03-13T01:13:57.641Z,93550.94
2023-03-13T01:16:28.607Z,93552.25
2023-03-13T01:18:59.455Z,93551.94
2023-03-13T01:21:28.486Z,93550.66
2023-03-13T01:23:56.654Z,93554.69
2023-03-13T01:26:24.927Z,93554.03
2023-03-13T01:28:55.082Z,93561.59
2023-03-13T01:31:22.779Z,93554.03
2023-03-13T01:33:53.884Z,93551.78
2023-03-13T01:36:21.967Z,93553.56
2023-03-13T01:38:55.529Z,93551.97
2023-03-13T01:41:24.772Z,93556.78
2023-03-13T01:43:52.655Z,93555.97
2023-03-13T01:46:22.256Z,93560.50
2023-03-13T01:49:05.167Z,93559.03
2023-03-13T01:51:35.379Z,93567.56
2023-03-13T01:54:08.856Z,93557.28
2023-03-13T01:56:58.200Z,93570.91
2023-03-13T01:59:34.265Z,93567.53
2023-03-13T02:02:03.353Z,93575.56
2023-03-13T02:04:32.215Z,93572.38
2023-03-13T02:07:05.373Z,93574.47
2023-03-13T02:09:35.952Z,93585.69
2023-03-13T02:12:18.181Z,93583.63
2023-03-13T02:14:47.928Z,93590.69
2023-03-13T02:17:16.418Z,93594.69
2023-03-13T02:19:48.770Z,93587.44
2023-03-13T02:22:34.244Z,93584.09
2023-03-13T02:25:10.998Z,93584.91
2023-03-13T02:27:38.633Z,93587.28
2023-03-13T02:30:09.177Z,93585.38
2023-03-13T02:32:37.164Z,93589.81
2023-03-13T02:35:16.962Z,93589.75
2023-03-13T02:37:48.331Z,93590.63
2023-03-13T02:40:22.801Z,93592.06
2023-03-13T02:42:52.617Z,93595.94
2023-03-13T02:45:20.139Z,93603.12
2023-03-13T02:47:48.467Z,93609.28
2023-03-13T02:50:17.334Z,93605.87
2023-03-13T02:52:49.907Z,93610.59
2023-03-13T02:55:33.963Z,93613.34
2023-03-13T02:58:01.358Z,93619.03
2023-03-13T03:00:30.393Z,93624.22
2023-03-13T03:02:57.818Z,93627.00
2023-03-13T03:05:25.194Z,93632.13
2023-03-13T03:07:52.980Z,93643.44
2023-03-13T03:10:20.493Z,93645.78
2023-03-13T03:12:47.871Z,93654.25
2023-03-13T03:15:15.591Z,93654.00
2023-03-13T03:17:43.324Z,93641.06
2023-03-13T03:20:12.338Z,93648.38
2023-03-13T03:22:41.568Z,93642.19
2023-03-13T03:25:09.774Z,93649.97
2023-03-13T03:27:37.575Z,93651.69
2023-03-13T03:30:06.529Z,93642.63
2023-03-13T03:32:34.303Z,93651.84
2023-03-13T03:35:01.675Z,93651.34
2023-03-13T03:37:29.565Z,93645.19
2023-03-13T03:39:57.731Z,93656.41
2023-03-13T03:42:25.818Z,93668.69
2023-03-13T03:44:54.387Z,93675.16
2023-03-13T03:47:21.787Z,93673.81
2023-03-13T03:49:49.147Z,93686.12
2023-03-13T03:52:17.470Z,93691.84
2023-03-13T03:54:44.750Z,93694.78
2023-03-13T03:57:12.633Z,93704.72
2023-03-13T03:59:40.455Z,93706.66
2023-03-13T04:02:08.056Z,93705.63
2023-03-13T04:04:36.037Z,93705.69
2023-03-13T04:07:03.875Z,93720.84
2023-03-13T04:09:32.288Z,93720.19
2023-03-13T04:12:00.484Z,93721.13
2023-03-13T04:14:28.586Z,93721.88
2023-03-13T04:16:56.189Z,93719.34
2023-03-13T04:19:24.952Z,93729.31
2023-03-13T04:21:52.394Z,93723.97
2023-03-13T04:24:20.074Z,93730.28
2023-03-13T04:26:48.150Z,93736.00
2023-03-13T04:29:15.613Z,93731.03
2023-03-13T04:31:44.693Z,93742.44
2023-03-13T04:34:13.407Z,93742.00
2023-03-13T04:36:40.935Z,93744.09
2023-03-13T04:39:08.585Z,93745.84
2023-03-13T04:41:36.921Z,93747.84
2023-03-13T04:44:04.520Z,93749.66
2023-03-13T04:46:32.003Z,93749.66
2023-03-13T04:49:00.675Z,93758.97
2023-03-13T04:51:28.432Z,93770.38
2023-03-13T04:53:55.868Z,93778.12
2023-03-13T04:56:41.638Z,93784.31
2023-03-13T04:59:12.968Z,93786.69
2023-03-13T05:01:41.412Z,93779.09
2023-03-13T05:04:09.987Z,93793.00
2023-03-13T05:06:37.690Z,93798.16
2023-03-13T05:09:05.785Z,93789.37
2023-03-13T05:11:33.850Z,93800.62
2023-03-13T05:14:01.520Z,93795.00
2023-03-13T05:16:29.440Z,93802.63
2023-03-13T05:18:56.877Z,93801.53
2023-03-13T05:21:25.269Z,93792.22
2023-03-13T05:23:53.028Z,93799.09
2023-03-13T05:26:21.185Z,93800.88
2023-03-13T05:28:48.592Z,93800.06
2023-03-13T05:31:16.512Z,93801.53
2023-03-13T05:33:44.523Z,93812.87
2023-03-13T05:36:12.151Z,93792.13
2023-03-13T05:38:40.169Z,93807.59
2023-03-13T05:41:08.559Z,93804.31
2023-03-13T05:43:36.256Z,93807.16
2023-03-13T05:46:04.142Z,93809.12
2023-03-13T05:48:32.019Z,93805.69
2023-03-13T05:50:59.797Z,93817.34
2023-03-13T05:53:28.305Z,93825.41
2023-03-13T05:55:55.780Z,93828.53
2023-03-13T05:58:23.428Z,93829.69
2023-03-13T06:00:51.373Z,93817.19
2023-03-13T06:03:20.361Z,93827.87
2023-03-13T06:05:48.952Z,93826.38
2023-03-13T06:08:17.132Z,93819.56
2023-03-13T06:10:45.240Z,93819.56
2023-03-13T06:13:19.747Z,93818.59
2023-03-13T06:15:58.782Z,93824.59
2023-03-13T06:18:27.283Z,93818.78
2023-03-13T06:21:00.159Z,93825.81
2023-03-13T06:23:27.981Z,93834.44
2023-03-13T06:25:55.892Z,93837.81
2023-03-13T06:28:23.270Z,93834.28
2023-03-13T06:30:50.661Z,93822.53
2023-03-13T06:33:18.378Z,93834.28
2023-03-13T06:35:56.175Z,93824.78
2023-03-13T06:38:25.427Z,93824.94
2023-03-13T06:40:53.170Z,93827.66
2023-03-13T06:43:21.180Z,93828.56
2023-03-13T06:45:49.010Z,93827.78
2023-03-13T06:48:16.573Z,93813.81
2023-03-13T06:50:44.248Z,93818.03
2023-03-13T06:53:21.435Z,93819.87
2023-03-13T06:55:51.494Z,93813.38
2023-03-13T06:58:31.487Z,93813.69
2023-03-13T07:01:20.361Z,93815.38
2023-03-13T07:03:49.139Z,93810.31
2023-03-13T07:06:18.666Z,93791.16
2023-03-13T07:08:46.405Z,93797.22
2023-03-13T07:11:15.810Z,93792.13
2023-03-13T07:13:43.124Z,93790.31
2023-03-13T07:16:13.072Z,93789.91
2023-03-13T07:18:45.042Z,93792.44
2023-03-13T07:21:13.056Z,93781.69
2023-03-13T07:23:41.050Z,93775.66
2023-03-13T07:26:12.583Z,93783.22
2023-03-13T07:28:40.347Z,93780.31
2023-03-13T07:31:12.732Z,93784.66
2023-03-13T07:33:40.845Z,93784.53
2023-03-13T07:36:09.971Z,93786.47
2023-03-13T07:38:37.596Z,93781.78
2023-03-13T07:41:06.081Z,93781.84
2023-03-13T07:43:34.134Z,93775.38
2023-03-13T07:46:04.967Z,93779.50
2023-03-13T07:48:35.261Z,93778.75
2023-03-13T07:51:04.321Z,93778.25
2023-03-13T07:53:32.244Z,93769.72
2023-03-13T07:56:03.696Z,93766.22
2023-03-13T07:58:34.174Z,93775.31
2023-03-13T08:01:01.958Z,93774.31
2023-03-13T08:03:30.413Z,93783.50
2023-03-13T08:06:02.937Z,93776.16
2023-03-13T08:08:31.119Z,93763.63
2023-03-13T08:11:08.021Z,93769.62
2023-03-13T08:13:36.428Z,93761.25
2023-03-13T08:16:12.311Z,93754.84
2023-03-13T08:18:42.468Z,93753.75
2023-03-13T08:21:12.530Z,93744.06
2023-03-13T08:23:40.578Z,93749.66
2023-03-13T08:26:12.885Z,93742.00
2023-03-13T08:28:41.366Z,93741.63
2023-03-13T08:31:11.765Z,93736.19
2023-03-13T08:33:40.666Z,93737.66
2023-03-13T08:36:09.789Z,93738.22
2023-03-13T08:38:38.311Z,93733.13
2023-03-13T08:41:05.723Z,93731.50
2023-03-13T08:43:33.420Z,93735.78
2023-03-13T08:46:00.882Z,93746.78
2023-03-13T08:48:28.504Z,93746.00
2023-03-13T08:51:12.063Z,93738.28
2023-03-13T08:53:42.021Z,93736.28
2023-03-13T08:56:15.282Z,93746.22
2023-03-13T08:58:42.711Z,93743.91
2023-03-13T09:01:15.181Z,93739.91
2023-03-13T09:03:43.235Z,93744.13
2023-03-13T09:06:12.068Z,93748.31
2023-03-13T09:08:40.776Z,93738.03
2023-03-13T09:11:11.539Z,93740.97
2023-03-13T09:13:42.093Z,93745.22
2023-03-13T09:16:12.876Z,93736.50
2023-03-13T09:18:41.578Z,93727.81
2023-03-13T09:21:13.988Z,93730.41
2023-03-13T09:23:41.675Z,93730.53
2023-03-13T09:26:09.934Z,93730.72
2023-03-13T09:28:37.339Z,93735.28
2023-03-13T09:31:32.232Z,93724.56
2023-03-13T09:34:00.660Z,93728.97
2023-03-13T09:36:28.994Z,93731.47
2023-03-13T09:38:58.223Z,93732.44
2023-03-13T09:41:34.730Z,93735.69
2023-03-13T09:44:11.548Z,93738.00
2023-03-13T09:46:41.391Z,93726.38
2023-03-13T09:49:41.748Z,93723.72
2023-03-13T09:52:22.949Z,93729.19
2023-03-13T09:55:13.218Z,93720.22
2023-03-13T09:57:54.624Z,93729.53
2023-03-13T10:00:34.623Z,93731.50
2023-03-13T10:03:11.451Z,93730.97
2023-03-13T10:05:48.409Z,93733.97
2023-03-13T10:08:17.516Z,93728.16
2023-03-13T10:11:07.997Z,93730.50
2023-03-13T10:13:56.023Z,93729.63
2023-03-13T10:16:41.511Z,93714.50
2023-03-13T10:19:19.828Z,93706.47
2023-03-13T10:21:53.565Z,93704.81
2023-03-13T10:24:30.284Z,93695.34
2023-03-13T10:26:58.153Z,93702.00
2023-03-13T10:29:28.520Z,93701.66
2023-03-13T10:32:00.492Z,93698.16
2023-03-13T10:34:44.411Z,93690.34
2023-03-13T10:37:16.983Z,93688.19
2023-03-13T10:39:44.644Z,93680.94
2023-03-13T10:42:24.186Z,93674.41
2023-03-13T10:44:58.428Z,93688.53
2023-03-13T10:47:26.404Z,93672.69
2023-03-13T10:49:58.921Z,93671.06
2023-03-13T10:52:43.680Z,93656.59
2023-03-13T10:55:13.801Z,93653.06
2023-03-13T10:57:51.680Z,93637.72
2023-03-13T11:00:30.675Z,93652.06
2023-03-13T11:02:58.376Z,93643.87
2023-03-13T11:05:28.982Z,93637.06
2023-03-13T11:07:56.839Z,93637.56
2023-03-13T11:10:37.048Z,93634.28
2023-03-13T11:13:04.816Z,93638.44
2023-03-13T11:15:39.989Z,93636.13
2023-03-13T11:18:29.665Z,93635.03
2023-03-13T11:21:08.712Z,93629.81
2023-03-13T11:23:49.832Z,93634.97
2023-03-13T11:26:27.189Z,93630.47
2023-03-13T11:29:09.861Z,93625.25
2023-03-13T11:31:45.273Z,93614.19
2023-03-13T11:34:17.610Z,93609.41
2023-03-13T11:36:51.016Z,93611.38
2023-03-13T11:39:42.982Z,93600.13
2023-03-13T11:42:25.776Z,93595.78
2023-03-13T11:45:18.966Z,93600.19
2023-03-13T11:47:56.100Z,93592.69
2023-03-13T11:50:31.977Z,93597.59
2023-03-13T11:53:26.933Z,93585.53
2023-03-13T11:56:32.467Z,93580.12
2023-03-13T11:59:15.166Z,93565.34
2023-03-13T12:01:49.738Z,93572.00
2023-03-13T12:04:32.848Z,93560.81
2023-03-13T12:07:06.828Z,93562.19
2023-03-13T12:09:54.571Z,93559.16
2023-03-13T12:12:42.226Z,93557.78
2023-03-13T12:15:32.584Z,93542.31
2023-03-13T12:18:23.896Z,93538.63
2023-03-13T12:20:58.660Z,93532.28
2023-03-13T12:23:55.266Z,93534.31
2023-03-13T12:26:47.890Z,93532.78
2023-03-13T12:29:21.966Z,93528.63
2023-03-13T12:31:57.865Z,93536.41
2023-03-13T12:34:36.923Z,93527.19
2023-03-13T12:37:55.200Z,93528.28
2023-03-13T12:41:00.895Z,93531.34
2023-03-13T12:43:33.179Z,93524.13
2023-03-13T12:46:01.070Z,93521.41
2023-03-13T12:48:41.327Z,93528.34
2023-03-13T12:51:27.187Z,93519.19
2023-03-13T12:54:22.820Z,93524.38
2023-03-13T12:57:12.010Z,93521.19
2023-03-13T12:59:42.865Z,93519.25
2023-03-13T13:02:19.025Z,93528.81
2023-03-13T13:04:49.096Z,93519.72
2023-03-13T13:07:22.452Z,93517.44
2023-03-13T13:10:21.990Z,93524.78
2023-03-13T13:13:14.425Z,93515.97
2023-03-13T13:15:48.181Z,93521.44
2023-03-13T13:18:29.163Z,93523.31
2023-03-13T13:21:03.025Z,93515.41
2023-03-13T13:23:39.560Z,93526.22
2023-03-13T13:26:33.883Z,93527.50
2023-03-13T13:29:21.863Z,93525.22
2023-03-13T13:31:52.438Z,93517.69
2023-03-13T13:34:56.832Z,93526.88
2023-03-13T13:37:29.303Z,93524.28
2023-03-13T13:40:16.778Z,93524.66
2023-03-13T13:42:55.363Z,93522.19
2023-03-13T13:45:27.773Z,93512.75
2023-03-13T13:48:14.653Z,93514.94
2023-03-13T13:51:18.900Z,93504.97
2023-03-13T13:53:53.133Z,93508.97
2023-03-13T13:56:29.972Z,93505.94
2023-03-13T13:59:22.941Z,93508.66
2023-03-13T14:02:13.616Z,93496.25
2023-03-13T14:04:43.485Z,93504.69
2023-03-13T14:07:18.181Z,93495.34
2023-03-13T14:09:54.916Z,93501.94
2023-03-13T14:12:30.081Z,93502.44
2023-03-13T14:15:23.736Z,93491.97
2023-03-13T14:17:59.355Z,93495.16
2023-03-13T14:20:38.697Z,93493.38
2023-03-13T14:23:12.073Z,93494.13
2023-03-13T14:25:49.373Z,93494.41
2023-03-13T14:28:28.547Z,93493.59
2023-03-13T14:30:58.933Z,93497.78
2023-03-13T14:33:27.951Z,93489.31
2023-03-13T14:35:57.883Z,93493.63
2023-03-13T14:38:27.494Z,93489.84
2023-03-13T14:41:01.433Z,93497.25
2023-03-13T14:43:36.443Z,93493.88
2023-03-13T14:46:32.576Z,93487.41
2023-03-13T14:49:20.874Z,93485.28
2023-03-13T14:52:13.821Z,93491.25
2023-03-13T14:54:55.739Z,93484.25
2023-03-13T14:57:27.808Z,93482.09
2023-03-13T15:00:16.052Z,93488.75
2023-03-13T15:02:43.506Z,93482.78
2023-03-13T15:05:33.411Z,93484.25
2023-03-13T15:08:01.042Z,93484.31
2023-03-13T15:10:37.029Z,93484.03
2023-03-13T15:13:19.699Z,93476.34
2023-03-13T15:15:48.206Z,93479.72
2023-03-13T15:18:19.876Z,93477.81
2023-03-13T15:21:10.951Z,93477.31
2023-03-13T15:23:38.446Z,93481.25
2023-03-13T15:26:06.567Z,93480.88
2023-03-13T15:28:34.092Z,93485.84
2023-03-13T15:31:01.495Z,93484.66
2023-03-13T15:33:30.404Z,93488.22
2023-03-13T15:35:58.135Z,93491.09
2023-03-13T15:38:27.536Z,93496.72
2023-03-13T15:40:55.583Z,93497.47
2023-03-13T15:43:23.760Z,93496.81
2023-03-13T15:45:52.735Z,93514.94
2023-03-13T15:48:31.573Z,93512.09
2023-03-13T15:51:01.855Z,93511.09
2023-03-13T15:53:32.417Z,93518.69
2023-03-13T15:56:03.029Z,93523.28
2023-03-13T15:58:30.981Z,93527.00
2023-03-13T16:00:58.767Z,93521.56
2023-03-13T16:03:29.088Z,93530.69
2023-03-13T16:05:57.264Z,93533.25
2023-03-13T16:08:37.329Z,93530.03
2023-03-13T16:11:05.479Z,93532.38
2023-03-13T16:13:33.346Z,93531.84
2023-03-13T16:16:00.802Z,93542.38
2023-03-13T16:18:28.768Z,93531.28
2023-03-13T16:20:56.108Z,93540.22
2023-03-13T16:23:23.434Z,93543.78
2023-03-13T16:25:51.348Z,93532.03
2023-03-13T16:28:18.744Z,93545.28
2023-03-13T16:30:47.837Z,93539.75
2023-03-13T16:33:15.699Z,93539.69
2023-03-13T16:35:42.993Z,93541.25
2023-03-13T16:38:11.696Z,93542.88
2023-03-13T16:40:39.413Z,93543.56
2023-03-13T16:43:06.819Z,93541.62
2023-03-13T16:45:34.247Z,93546.16
2023-03-13T16:48:01.979Z,93544.78
2023-03-13T16:50:35.389Z,93548.97
2023-03-13T16:53:03.881Z,93553.72
2023-03-13T16:55:36.782Z,93553.66
2023-03-13T16:58:05.477Z,93551.97
2023-03-13T17:00:33.173Z,93563.41
2023-03-13T17:03:01.689Z,93582.63
2023-03-13T17:05:29.840Z,93591.19
2023-03-13T17:07:57.291Z,93590.34
2023-03-13T17:10:27.887Z,93603.94
2023-03-13T17:12:55.903Z,93609.50
2023-03-13T17:15:24.992Z,93606.69
2023-03-13T17:17:54.390Z,93610.28
2023-03-13T17:20:27.547Z,93614.41
2023-03-13T17:22:57.985Z,93607.41
2023-03-13T17:25:25.760Z,93608.94
2023-03-13T17:27:53.762Z,93607.03
2023-03-13T17:30:27.327Z,93611.38
2023-03-13T17:32:55.137Z,93608.75
2023-03-13T17:35:24.318Z,93611.69
2023-03-13T17:37:51.736Z,93613.81
2023-03-13T17:40:22.876Z,93619.97
2023-03-13T17:42:50.321Z,93624.72
2023-03-13T17:45:18.219Z,93624.72
2023-03-13T17:47:47.339Z,93625.62
2023-03-13T17:50:16.227Z,93626.59
2023-03-13T17:52:43.731Z,93638.38
2023-03-13T17:55:11.998Z,93640.84
2023-03-13T17:57:39.893Z,93640.66
2023-03-13T18:00:15.428Z,93637.50
2023-03-13T18:02:43.160Z,93644.75
2023-03-13T18:05:10.570Z,93645.84
2023-03-13T18:07:44.065Z,93644.69
2023-03-13T18:10:23.530Z,93644.69
2023-03-13T18:12:54.900Z,93649.25
2023-03-13T18:15:24.870Z,93644.03
2023-03-13T18:17:52.982Z,93644.06
2023-03-13T18:20:26.783Z,93643.47
2023-03-13T18:22:59.573Z,93645.06
2023-03-13T18:25:30.225Z,93653.69
2023-03-13T18:27:58.282Z,93654.88
2023-03-13T18:30:26.698Z,93652.84
2023-03-13T18:32:54.587Z,93648.25
2023-03-13T18:35:22.339Z,93648.25
2023-03-13T18:37:50.254Z,93650.84
2023-03-13T18:40:26.596Z,93644.06
2023-03-13T18:42:54.510Z,93645.66
2023-03-13T18:45:26.950Z,93641.81
2023-03-13T18:47:55.001Z,93638.41
2023-03-13T18:50:31.370Z,93636.00
2023-03-13T18:53:00.546Z,93646.75
2023-03-13T18:55:30.572Z,93644.78
2023-03-13T18:57:57.984Z,93652.28
2023-03-13T19:00:29.295Z,93661.88
2023-03-13T19:02:56.879Z,93663.75
2023-03-13T19:05:24.542Z,93668.84
2023-03-13T19:07:52.370Z,93667.56
2023-03-13T19:10:24.660Z,93676.16
2023-03-13T19:12:54.148Z,93678.91
2023-03-13T19:15:24.741Z,93679.31
2023-03-13T19:17:54.067Z,93680.63
2023-03-13T19:20:23.494Z,93685.41
2023-03-13T19:22:50.927Z,93687.94
2023-03-13T19:25:19.267Z,93680.88
2023-03-13T19:27:48.186Z,93685.19
2023-03-13T19:30:26.100Z,93693.41
2023-03-13T19:32:53.925Z,93686.16
2023-03-13T19:35:22.418Z,93681.50
2023-03-13T19:37:50.329Z,93681.94
2023-03-13T19:40:26.123Z,93688.94
2023-03-13T19:42:53.478Z,93679.47
2023-03-13T19:45:22.263Z,93686.94
2023-03-13T19:47:50.140Z,93683.56
2023-03-13T19:50:23.380Z,93677.88
2023-03-13T19:52:51.226Z,93679.34
2023-03-13T19:55:18.687Z,93680.06
2023-03-13T19:57:46.145Z,93676.84
2023-03-13T20:00:22.822Z,93674.87
2023-03-13T20:02:52.394Z,93685.34
2023-03-13T20:05:20.157Z,93682.72
2023-03-13T20:07:48.440Z,93684.44
2023-03-13T20:10:16.273Z,93684.16
2023-03-13T20:12:44.017Z,93690.06
2023-03-13T20:15:12.134Z,93692.66
2023-03-13T20:17:39.551Z,93687.97
2023-03-13T20:20:09.154Z,93683.75
2023-03-13T20:22:36.571Z,93684.44
2023-03-13T20:25:04.257Z,93685.22
2023-03-13T20:27:31.948Z,93680.03
2023-03-13T20:29:59.999Z,93675.47
2023-03-13T20:32:27.816Z,93680.97
2023-03-13T20:34:55.518Z,93681.91
2023-03-13T20:37:22.899Z,93690.00
2023-03-13T20:39:50.323Z,93682.72
2023-03-13T20:42:18.163Z,93682.34
2023-03-13T20:44:46.017Z,93686.97
2023-03-13T20:47:13.365Z,93684.88
2023-03-13T20:49:41.685Z,93684.88
2023-03-13T20:52:09.103Z,93681.22
2023-03-13T20:54:36.516Z,93685.41
2023-03-13T20:57:04.655Z,93681.97
2023-03-13T20:59:32.386Z,93679.25
2023-03-13T21:01:59.833Z,93675.06
2023-03-13T21:04:27.557Z,93680.06
2023-03-13T21:06:54.957Z,93675.94
2023-03-13T21:09:22.340Z,93673.13
2023-03-13T21:11:50.041Z,93675.19
2023-03-13T21:14:17.385Z,93666.87
2023-03-13T21:16:44.943Z,93663.03
2023-03-13T21:19:12.720Z,93655.47
2023-03-13T21:21:40.345Z,93653.78
2023-03-13T21:24:08.050Z,93652.53
2023-03-13T21:26:35.766Z,93650.47
2023-03-13T21:29:03.785Z,93639.97
2023-03-13T21:31:31.309Z,93639.16
2023-03-13T21:33:59.077Z,93644.50
2023-03-13T21:36:26.440Z,93641.28
2023-03-13T21:38:53.913Z,93645.03
2023-03-13T21:41:22.854Z,93639.34
2023-03-13T21:43:50.253Z,93639.16
2023-03-13T21:46:20.039Z,93638.91
2023-03-13T21:48:47.967Z,93630.09
2023-03-13T21:51:15.669Z,93623.31
2023-03-13T21:53:44.644Z,93626.69
2023-03-13T21:56:16.880Z,93632.50
2023-03-13T21:58:48.481Z,93645.59
2023-03-13T22:01:16.681Z,93638.38
2023-03-13T22:03:44.574Z,93638.38
2023-03-13T22:06:17.146Z,93646.47
2023-03-13T22:08:45.338Z,93649.03
2023-03-13T22:11:12.876Z,93643.31
2023-03-13T22:13:40.346Z,93635.47
2023-03-13T22:16:10.586Z,93639.03
2023-03-13T22:18:39.546Z,93636.47
2023-03-13T22:21:07.013Z,93629.19
2023-03-13T22:23:34.829Z,93628.94
2023-03-13T22:26:02.225Z,93623.56
2023-03-13T22:28:29.480Z,93614.47
2023-03-13T22:31:01.265Z,93621.53
2023-03-13T22:33:28.520Z,93623.63
2023-03-13T22:35:55.850Z,93616.72
2023-03-13T22:38:23.615Z,93613.00
2023-03-13T22:41:02.379Z,93620.47
2023-03-13T22:43:30.346Z,93613.56
2023-03-13T22:45:58.998Z,93606.81
2023-03-13T22:48:26.991Z,93611.47
2023-03-13T22:51:08.979Z,93616.59
2023-03-13T22:53:38.741Z,93620.38
2023-03-13T22:56:07.110Z,93625.16
2023-03-13T22:58:34.525Z,93618.69
2023-03-13T23:01:05.221Z,93610.72
2023-03-13T23:03:32.868Z,93602.25
2023-03-13T23:06:00.101Z,93600.53
2023-03-13T23:08:27.644Z,93596.59
2023-03-13T23:10:55.422Z,93599.44
2023-03-13T23:13:22.730Z,93598.94
2023-03-13T23:15:56.449Z,93604.31
2023-03-13T23:18:26.811Z,93601.19
2023-03-13T23:20:54.426Z,93608.09
2023-03-13T23:23:22.094Z,93608.16
2023-03-13T23:25:50.238Z,93613.66
2023-03-13T23:28:17.548Z,93606.03
2023-03-13T23:30:45.288Z,93604.22
2023-03-13T23:33:12.973Z,93605.25
2023-03-13T23:35:40.325Z,93585.13
2023-03-13T23:38:07.635Z,93590.16
2023-03-13T23:40:36.436Z,93588.66
2023-03-13T23:43:04.159Z,93587.41
2023-03-13T23:45:31.524Z,93580.91
2023-03-13T23:47:59.141Z,93584.19
2023-03-13T23:50:26.369Z,93583.56
2023-03-13T23:52:54.137Z,93584.19
2023-03-13T23:55:21.815Z,93578.94
2023-03-13T23:57:50.841Z,93581.47
